Time;durP1;ratioP1;P1;durP2;ratioP2;P2;SDS_P1;SDS_P2;PMS_P1;PMS_P2;Temp;Humidity;BMP_temperature;BMP_pressure;BME280_temperature;BME280_humidity;BME280_pressure;Samples;Min_cycle;Max_cycle;Signal;HPM_P1;HPM_P2
2022/05/12 00:01:30;;;;;;;16.75;9.65;;;25.60;99.90;;;;;;5107562;28;20129;-46
2022/05/12 00:03:55;;;;;;;16.33;8.30;;;25.60;99.90;;;;;;5096117;28;20020;-46
2022/05/12 00:06:22;;;;;;;17.52;9.63;;;25.60;99.90;;;;;;5091521;28;20028;-45
2022/05/12 00:08:47;;;;;;;22.80;10.93;;;25.60;99.90;;;;;;5091390;28;20027;-43
2022/05/12 00:11:13;;;;;;;18.35;9.50;;;25.60;99.90;;;;;;5095651;28;20032;-46
2022/05/12 00:13:39;;;;;;;20.60;10.38;;;25.60;99.90;;;;;;5101826;28;20024;-45
2022/05/12 00:16:05;;;;;;;21.90;11.45;;;25.60;99.90;;;;;;5104244;28;20050;-45
2022/05/12 00:18:49;;;;;;;23.27;12.23;;;25.60;99.90;;;;;;5111863;28;20459;-46
2022/05/12 00:21:15;;;;;;;21.60;11.00;;;25.60;99.90;;;;;;5102500;28;20493;-46
2022/05/12 00:23:41;;;;;;;22.55;10.98;;;25.60;99.90;;;;;;5091109;28;20058;-46
2022/05/12 00:26:07;;;;;;;17.92;10.70;;;25.60;99.90;;;;;;5076663;28;20028;-45
2022/05/12 00:28:33;;;;;;;21.50;10.63;;;25.60;99.90;;;;;;5093768;28;20349;-46
2022/05/12 00:30:58;;;;;;;24.95;11.20;;;25.60;99.90;;;;;;5090262;28;20549;-47
2022/05/12 00:33:27;;;;;;;18.13;11.98;;;25.70;99.90;;;;;;5091976;28;20411;-46
2022/05/12 00:35:55;;;;;;;21.58;10.32;;;25.70;99.90;;;;;;5091366;28;20024;-45
2022/05/12 00:38:21;;;;;;;21.98;10.27;;;25.70;99.90;;;;;;5091288;28;20028;-45
2022/05/12 00:40:47;;;;;;;20.73;11.13;;;25.70;99.90;;;;;;5091001;28;20028;-46
2022/05/12 00:48:52;;;;;;;19.92;11.45;;;25.70;99.90;;;;;;5814642;22;20049;-48
2022/05/12 00:51:24;;;;;;;;;;;25.70;99.90;;;;;;5039344;28;20061;-49
2022/05/12 00:53:54;;;;;;;22.70;11.77;;;25.70;99.90;;;;;;5049792;28;19905;-48
2022/05/12 00:56:22;;;;;;;22.70;11.95;;;25.70;99.90;;;;;;5045551;28;20021;-49
2022/05/12 00:58:51;;;;;;;20.85;12.23;;;25.70;99.90;;;;;;5042927;28;20096;-49
2022/05/12 01:01:17;;;;;;;19.08;13.00;;;25.70;99.90;;;;;;5053602;28;20231;-49
2022/05/12 01:03:45;;;;;;;18.20;12.15;;;25.70;99.90;;;;;;5039390;28;20475;-48
2022/05/12 01:06:12;;;;;;;22.48;12.80;;;25.70;99.90;;;;;;5050178;28;20021;-51
2022/05/12 01:11:24;;;;;;;19.77;11.95;;;25.70;99.90;;;;;;5054110;28;20059;-52
2022/05/12 01:13:59;;;;;;;20.52;11.95;;;25.70;99.90;;;;;;5054001;28;20021;-55
2022/05/12 01:16:56;;;;;;;18.67;11.80;;;25.70;99.90;;;;;;5053915;28;20044;-51
2022/05/12 01:19:33;;;;;;;35.65;13.00;;;25.70;99.90;;;;;;5042956;28;20380;-52
2022/05/12 01:22:01;;;;;;;21.90;12.68;;;25.70;99.90;;;;;;5039785;28;20400;-51
2022/05/12 01:24:39;;;;;;;25.10;13.57;;;25.70;99.90;;;;;;5045588;28;20018;-52
2022/05/12 01:27:19;;;;;;;19.65;12.30;;;25.60;99.90;;;;;;5048113;28;20159;-51
2022/05/12 01:29:49;;;;;;;20.48;12.95;;;25.60;99.90;;;;;;5044317;28;20025;-52
2022/05/12 01:32:15;;;;;;;21.45;14.07;;;25.70;99.90;;;;;;5048567;28;20407;-50
2022/05/12 01:34:41;;;;;;;20.48;13.85;;;25.70;99.90;;;;;;5034987;28;20087;-50
2022/05/12 01:37:07;;;;;;;20.08;13.15;;;25.70;99.90;;;;;;5048692;28;20021;-50
2022/05/12 01:39:35;;;;;;;20.15;12.77;;;25.70;99.90;;;;;;5040650;28;20029;-50
2022/05/12 01:42:02;;;;;;;18.65;12.55;;;25.70;99.90;;;;;;5053811;28;20075;-49
2022/05/12 01:44:28;;;;;;;17.77;12.65;;;25.70;99.90;;;;;;5049032;28;20044;-51
2022/05/12 01:46:54;;;;;;;16.48;12.95;;;25.60;99.90;;;;;;5034468;28;20477;-50
2022/05/12 01:49:20;;;;;;;23.88;15.55;;;25.70;99.90;;;;;;5037581;28;20049;-50
2022/05/12 01:51:46;;;;;;;22.38;13.95;;;25.70;99.90;;;;;;5052409;28;20443;-50
2022/05/12 01:57:15;;;;;;;19.60;13.73;;;25.70;99.90;;;;;;5045433;28;20072;-50
2022/05/12 01:59:41;;;;;;;21.42;13.43;;;25.70;99.90;;;;;;5039417;28;20090;-50
2022/05/12 02:02:07;;;;;;;25.85;13.23;;;25.70;99.90;;;;;;5043751;28;20488;-50
2022/05/12 02:04:33;;;;;;;21.20;13.35;;;25.70;99.90;;;;;;5033662;28;20031;-50
2022/05/12 02:06:58;;;;;;;22.13;14.25;;;25.70;99.90;;;;;;5041036;28;20432;-50
2022/05/12 02:09:24;;;;;;;17.33;12.90;;;25.70;99.90;;;;;;5052959;28;20035;-51
2022/05/12 02:11:50;;;;;;;26.65;13.85;;;25.70;99.90;;;;;;5047489;28;20018;-55
2022/05/12 02:14:16;;;;;;;25.77;14.77;;;25.70;99.90;;;;;;5033629;28;20055;-50
2022/05/12 02:16:42;;;;;;;24.52;14.52;;;25.70;99.90;;;;;;5046886;28;20032;-49
2022/05/12 02:19:11;;;;;;;20.33;14.18;;;25.70;99.90;;;;;;5042899;28;20021;-49
2022/05/12 02:21:37;;;;;;;23.30;13.77;;;25.70;99.90;;;;;;5039094;28;20555;-49
2022/05/12 02:24:04;;;;;;;22.60;13.70;;;25.60;99.90;;;;;;5044984;28;20028;-50
2022/05/12 02:26:48;;;;;;;24.60;14.32;;;25.70;99.90;;;;;;5033462;28;20130;-51
2022/05/12 02:29:14;;;;;;;25.40;14.38;;;25.60;99.90;;;;;;5052789;28;20021;-50
2022/05/12 02:31:40;;;;;;;23.92;13.98;;;25.60;99.90;;;;;;5052381;28;20021;-49
2022/05/12 02:34:06;;;;;;;18.77;13.80;;;25.70;99.90;;;;;;5053132;28;20036;-50
2022/05/12 02:36:31;;;;;;;20.38;12.65;;;25.70;99.90;;;;;;5040050;28;20040;-49
2022/05/12 02:38:57;;;;;;;19.65;13.80;;;25.70;99.90;;;;;;5051162;28;20071;-49
2022/05/12 02:41:23;;;;;;;18.05;13.18;;;25.70;99.90;;;;;;5052676;28;20036;-51
2022/05/12 02:43:49;;;;;;;23.17;14.00;;;25.60;99.90;;;;;;5038719;28;20114;-52
2022/05/12 02:46:16;;;;;;;20.83;13.68;;;25.60;99.90;;;;;;5043645;28;20026;-52
2022/05/12 02:48:45;;;;;;;19.88;13.10;;;25.70;99.90;;;;;;5033530;28;20073;-49
2022/05/12 02:51:12;;;;;;;20.38;13.10;;;25.70;99.90;;;;;;5052516;28;20120;-50
2022/05/12 02:56:23;;;;;;;24.20;14.25;;;25.70;99.90;;;;;;5037355;28;19915;-49
2022/05/12 02:58:49;;;;;;;20.23;13.80;;;25.70;99.90;;;;;;5052386;28;20024;-50
2022/05/12 03:01:14;;;;;;;19.50;13.35;;;25.70;99.90;;;;;;5038044;28;20380;-49
2022/05/12 03:03:40;;;;;;;17.60;12.65;;;25.70;99.90;;;;;;5051508;28;21188;-51
2022/05/12 03:06:06;;;;;;;19.70;12.13;;;25.70;99.90;;;;;;5050630;28;20040;-51
2022/05/12 03:08:32;;;;;;;18.80;13.57;;;25.70;99.90;;;;;;5050890;28;20028;-51
2022/05/12 03:10:57;;;;;;;17.58;12.77;;;25.70;99.90;;;;;;5049245;28;20031;-51
2022/05/12 03:13:42;;;;;;;20.10;14.00;;;25.60;99.90;;;;;;5037963;28;20025;-51
2022/05/12 03:16:08;;;;;;;19.13;12.70;;;25.70;99.90;;;;;;5050447;28;20059;-51
2022/05/12 03:18:34;;;;;;;19.35;12.32;;;25.60;99.90;;;;;;5050576;28;20013;-51
2022/05/12 03:21:00;;;;;;;18.98;13.48;;;25.60;99.90;;;;;;5051721;28;20091;-50
2022/05/12 03:23:26;;;;;;;20.33;12.38;;;25.60;99.90;;;;;;5034989;28;20097;-51
2022/05/12 03:25:53;;;;;;;20.70;12.90;;;25.60;99.90;;;;;;5041075;28;20067;-50
2022/05/12 03:28:19;;;;;;;18.50;11.27;;;25.60;99.90;;;;;;5051468;28;20021;-51
2022/05/12 03:30:45;;;;;;;16.48;11.30;;;25.60;99.90;;;;;;5051687;28;20017;-51
2022/05/12 03:33:11;;;;;;;15.40;11.60;;;25.60;99.90;;;;;;5051863;28;20400;-51
2022/05/12 03:35:37;;;;;;;20.23;12.10;;;25.50;99.90;;;;;;5050208;28;20468;-52
2022/05/12 03:38:04;;;;;;;21.58;12.18;;;25.50;99.90;;;;;;5051624;28;20249;-53
2022/05/12 03:40:30;;;;;;;18.42;11.93;;;25.50;99.90;;;;;;5037426;28;20036;-53
2022/05/12 03:42:58;;;;;;;17.95;12.95;;;25.50;99.90;;;;;;5051686;28;20029;-53
2022/05/12 03:45:25;;;;;;;18.55;12.40;;;25.50;99.90;;;;;;5051083;28;20465;-53
2022/05/12 03:47:51;;;;;;;20.15;11.85;;;25.50;99.90;;;;;;5050147;28;20025;-52
2022/05/12 03:50:20;;;;;;;18.38;12.70;;;25.50;99.90;;;;;;5037392;28;20451;-53
2022/05/12 03:52:48;;;;;;;21.05;12.98;;;25.50;99.90;;;;;;5030032;28;20025;-52
2022/05/12 03:55:16;;;;;;;18.15;12.68;;;25.50;99.90;;;;;;5040242;28;20062;-53
2022/05/12 03:57:44;;;;;;;19.90;13.13;;;25.40;99.90;;;;;;5029929;28;20033;-53
2022/05/12 04:00:13;;;;;;;15.75;11.43;;;25.50;99.90;;;;;;5036075;28;20037;-53
2022/05/12 04:02:38;;;;;;;18.08;12.93;;;25.40;99.90;;;;;;5032205;28;20036;-51
2022/05/12 04:05:07;;;;;;;21.65;12.00;;;25.50;99.90;;;;;;5031508;28;20029;-51
2022/05/12 04:07:33;;;;;;;19.63;13.00;;;25.40;99.90;;;;;;5031515;28;20041;-51
2022/05/12 04:10:02;;;;;;;19.65;13.68;;;25.40;99.90;;;;;;5031433;28;20555;-51
2022/05/12 04:12:28;;;;;;;18.95;13.25;;;25.40;99.90;;;;;;5031375;28;20037;-50
2022/05/12 04:14:54;;;;;;;17.50;11.80;;;25.40;99.90;;;;;;5031407;28;20026;-50
2022/05/12 04:17:20;;;;;;;17.92;12.63;;;25.40;99.90;;;;;;5031451;28;20029;-51
2022/05/12 04:19:50;;;;;;;19.17;13.50;;;25.40;99.90;;;;;;5031376;28;20018;-51
2022/05/12 04:22:16;;;;;;;22.45;13.27;;;25.40;99.90;;;;;;5031384;28;20370;-50
2022/05/12 04:24:42;;;;;;;16.98;12.57;;;25.40;99.90;;;;;;5031511;28;20048;-53
2022/05/12 04:27:09;;;;;;;20.90;13.27;;;25.40;99.90;;;;;;5031670;28;20088;-53
2022/05/12 04:29:42;;;;;;;20.33;12.75;;;25.40;99.90;;;;;;5031481;28;20026;-53
2022/05/12 04:32:08;;;;;;;21.15;12.88;;;25.40;99.90;;;;;;5031366;28;20024;-51
2022/05/12 04:37:18;;;;;;;17.52;13.10;;;25.40;99.90;;;;;;5031491;28;20036;-51
2022/05/12 04:39:45;;;;;;;19.65;12.85;;;25.30;99.90;;;;;;5030104;28;20380;-51
2022/05/12 04:42:11;;;;;;;15.95;12.70;;;25.40;99.90;;;;;;5031339;28;20076;-51
2022/05/12 04:44:36;;;;;;;19.35;13.65;;;25.30;99.90;;;;;;5031083;28;20049;-51
2022/05/12 04:47:02;;;;;;;18.95;13.05;;;25.30;99.90;;;;;;5030974;28;20091;-51
2022/05/12 04:49:28;;;;;;;17.90;12.38;;;25.30;99.90;;;;;;5030959;28;20183;-51
2022/05/12 04:51:56;;;;;;;17.23;13.07;;;25.30;99.90;;;;;;5030992;28;20492;-52
2022/05/12 04:54:22;;;;;;;18.98;13.77;;;25.30;99.90;;;;;;5030939;28;20017;-52
2022/05/12 04:56:47;;;;;;;21.08;13.70;;;25.30;99.90;;;;;;5031036;28;20465;-51
2022/05/12 04:59:13;;;;;;;18.92;12.57;;;25.30;99.90;;;;;;5030974;28;20449;-51
2022/05/12 05:01:39;;;;;;;23.35;13.90;;;25.30;99.90;;;;;;5030831;28;20433;-51
2022/05/12 05:04:04;;;;;;;18.92;13.13;;;25.30;99.90;;;;;;5031043;28;20996;-51
2022/05/12 05:06:31;;;;;;;19.02;12.82;;;25.30;99.90;;;;;;5030876;28;20034;-51
2022/05/12 05:08:58;;;;;;;20.75;13.00;;;25.30;99.90;;;;;;5030801;28;20021;-52
2022/05/12 05:11:24;;;;;;;19.50;13.23;;;25.30;99.90;;;;;;5030957;28;20030;-51
2022/05/12 05:13:50;;;;;;;17.48;13.10;;;25.30;99.90;;;;;;5030862;28;20385;-51
2022/05/12 05:16:17;;;;;;;21.63;13.75;;;25.30;99.90;;;;;;5030763;28;20478;-51
2022/05/12 05:18:43;;;;;;;17.55;12.18;;;25.30;99.90;;;;;;5030930;28;20022;-51
2022/05/12 05:21:10;;;;;;;17.48;12.75;;;25.30;99.90;;;;;;5030691;28;20033;-51
2022/05/12 05:23:37;;;;;;;17.33;13.25;;;25.30;99.90;;;;;;5030684;28;20523;-52
2022/05/12 05:26:03;;;;;;;20.40;13.27;;;25.30;99.90;;;;;;5030766;28;20029;-52
2022/05/12 05:28:30;;;;;;;19.13;12.60;;;25.30;99.90;;;;;;5030601;28;20033;-51
2022/05/12 05:33:40;;;;;;;18.92;12.63;;;25.30;99.90;;;;;;5030876;28;20575;-52
2022/05/12 05:36:06;;;;;;;17.60;12.82;;;25.30;99.90;;;;;;5029402;28;20108;-52
2022/05/12 05:38:32;;;;;;;17.42;12.82;;;25.30;99.90;;;;;;5031776;28;20032;-51
2022/05/12 05:40:57;;;;;;;17.45;12.50;;;25.30;99.90;;;;;;5034105;28;20092;-52
2022/05/12 05:43:26;;;;;;;17.45;11.82;;;25.30;99.90;;;;;;5034081;28;20060;-51
2022/05/12 05:45:52;;;;;;;19.00;13.07;;;25.30;99.90;;;;;;5034092;28;20060;-52
2022/05/12 05:48:18;;;;;;;16.02;11.60;;;25.30;99.90;;;;;;5034117;28;20075;-51
2022/05/12 05:53:33;;;;;;;16.33;11.75;;;25.30;99.90;;;;;;5034378;28;20444;-52
2022/05/12 05:56:01;;;;;;;16.33;12.45;;;25.30;99.90;;;;;;5034009;28;20025;-52
2022/05/12 05:58:28;;;;;;;17.52;12.68;;;25.30;99.90;;;;;;5033869;28;20492;-51
2022/05/12 06:00:54;;;;;;;16.08;12.23;;;25.30;99.90;;;;;;5033546;28;20503;-51
2022/05/12 06:03:21;;;;;;;15.45;11.55;;;25.30;99.90;;;;;;5033934;28;20022;-51
2022/05/12 06:05:47;;;;;;;18.08;11.52;;;25.30;99.90;;;;;;5034041;28;20029;-52
2022/05/12 06:08:15;;;;;;;17.80;12.68;;;25.30;99.90;;;;;;5033736;28;20030;-52
2022/05/12 06:10:43;;;;;;;19.88;12.70;;;25.30;99.90;;;;;;5033847;28;20397;-51
2022/05/12 06:13:10;;;;;;;16.85;12.68;;;25.30;99.90;;;;;;5033405;28;20033;-51
2022/05/12 06:15:37;;;;;;;14.52;11.68;;;25.30;99.90;;;;;;5033527;28;20481;-52
2022/05/12 06:18:07;;;;;;;19.92;13.32;;;25.30;99.90;;;;;;5033484;28;20042;-52
2022/05/12 06:20:34;;;;;;;18.80;12.57;;;25.30;99.90;;;;;;5033364;28;20034;-52
2022/05/12 06:22:59;;;;;;;17.30;12.15;;;25.30;99.90;;;;;;5033399;28;20417;-52
2022/05/12 06:25:44;;;;;;;20.35;12.48;;;25.30;99.90;;;;;;5033419;28;20105;-52
2022/05/12 06:28:10;;;;;;;16.60;11.63;;;25.30;99.90;;;;;;5031996;28;20116;-51
2022/05/12 06:30:37;;;;;;;16.05;12.35;;;25.30;99.90;;;;;;5033177;28;20049;-51
2022/05/12 06:33:04;;;;;;;16.60;12.18;;;25.30;99.90;;;;;;5033085;28;20516;-51
2022/05/12 06:35:30;;;;;;;15.47;11.67;;;25.30;99.90;;;;;;5033229;28;20112;-51
2022/05/12 06:37:56;;;;;;;15.60;11.90;;;25.30;99.90;;;;;;5033037;28;20023;-51
2022/05/12 06:40:22;;;;;;;18.42;12.52;;;25.30;99.90;;;;;;5032963;28;20021;-51
2022/05/12 06:42:48;;;;;;;17.00;11.70;;;25.30;99.90;;;;;;5033310;28;20029;-52
2022/05/12 06:45:16;;;;;;;15.63;12.00;;;25.30;99.90;;;;;;5032966;28;20029;-51
2022/05/12 06:47:50;;;;;;;15.73;11.18;;;25.30;99.90;;;;;;5032880;28;20021;-52
2022/05/12 06:50:22;;;;;;;18.95;12.90;;;25.30;99.90;;;;;;5031657;28;20050;-52
2022/05/12 06:52:49;;;;;;;16.00;11.82;;;25.40;99.90;;;;;;5033121;28;20033;-51
2022/05/12 06:55:15;;;;;;;19.60;13.57;;;25.40;99.90;;;;;;5032690;28;20021;-51
2022/05/12 06:57:42;;;;;;;15.88;11.90;;;25.30;99.90;;;;;;5032691;28;20029;-52
2022/05/12 07:00:09;;;;;;;18.67;13.32;;;25.40;99.90;;;;;;5032756;28;20017;-51
2022/05/12 07:02:38;;;;;;;16.42;11.93;;;25.40;99.90;;;;;;5032787;28;20038;-52
2022/05/12 07:05:04;;;;;;;16.88;12.48;;;25.40;99.90;;;;;;5032446;28;20057;-51
2022/05/12 07:07:30;;;;;;;18.58;12.80;;;25.40;99.90;;;;;;5032551;28;20473;-51
2022/05/12 07:09:56;;;;;;;20.75;12.07;;;25.40;99.90;;;;;;5032455;28;20029;-52
2022/05/12 07:12:23;;;;;;;16.95;12.63;;;25.40;99.90;;;;;;5032703;28;20087;-52
2022/05/12 07:14:51;;;;;;;17.87;12.63;;;25.40;99.90;;;;;;5032702;28;20041;-52
2022/05/12 07:17:20;;;;;;;15.30;11.45;;;25.40;99.90;;;;;;5032440;28;20269;-52
2022/05/12 07:19:47;;;;;;;17.80;12.15;;;25.40;99.90;;;;;;5032369;28;20033;-51
2022/05/12 07:28:14;;;;;;;16.17;11.43;;;25.40;99.90;;;;;;5032185;28;20075;-52
2022/05/12 07:33:24;;;;;;;16.17;11.75;;;25.40;99.90;;;;;;5032029;28;20024;-52
2022/05/12 07:35:50;;;;;;;17.10;11.73;;;25.40;99.90;;;;;;5032089;28;20029;-52
2022/05/12 07:38:16;;;;;;;16.27;11.13;;;25.40;99.90;;;;;;5031885;28;20021;-53
2022/05/12 07:43:26;;;;;;;15.75;10.57;;;25.40;99.90;;;;;;5031785;28;20028;-52
2022/05/12 07:45:54;;;;;;;18.73;10.80;;;25.40;99.90;;;;;;5032023;28;20385;-52
2022/05/12 07:48:20;;;;;;;15.65;11.13;;;25.40;99.90;;;;;;5031601;28;20025;-52
2022/05/12 07:50:46;;;;;;;15.00;10.05;;;25.40;99.90;;;;;;5031647;28;20074;-52
2022/05/12 07:53:12;;;;;;;14.98;10.45;;;25.40;99.90;;;;;;5031605;28;20029;-52
2022/05/12 07:55:38;;;;;;;13.55;10.45;;;25.40;99.90;;;;;;5031538;28;20034;-52
2022/05/12 07:58:05;;;;;;;14.38;11.00;;;25.40;99.90;;;;;;5031592;28;20424;-52
2022/05/12 08:00:32;;;;;;;18.23;10.52;;;25.40;99.90;;;;;;5031483;28;20037;-53
2022/05/12 08:03:17;;;;;;;14.95;11.18;;;25.40;99.90;;;;;;5031294;28;20036;-52
2022/05/12 08:05:43;;;;;;;14.38;10.77;;;25.50;99.90;;;;;;5031491;28;20495;-52
2022/05/12 08:08:10;;;;;;;15.55;10.40;;;25.40;99.90;;;;;;5031676;28;20128;-52
2022/05/12 08:10:36;;;;;;;;;;;25.50;99.90;;;;;;5031846;28;20025;-52
2022/05/12 08:13:03;;;;;;;13.40;10.32;;;25.50;99.90;;;;;;5031204;28;20396;-52
2022/05/12 08:15:28;;;;;;;14.43;10.15;;;25.50;99.90;;;;;;5031320;28;20025;-52
2022/05/12 08:17:59;;;;;;;13.50;10.10;;;25.60;99.90;;;;;;5031038;28;20377;-52
2022/05/12 08:20:25;;;;;;;12.25;9.52;;;25.50;99.90;;;;;;5031143;28;20037;-52
2022/05/12 08:22:51;;;;;;;13.70;9.75;;;25.50;99.90;;;;;;5031260;28;20129;-52
2022/05/12 08:25:18;;;;;;;15.50;10.15;;;25.50;99.90;;;;;;5031170;28;20021;-52
2022/05/12 08:27:44;;;;;;;16.58;10.75;;;25.60;99.90;;;;;;5031350;28;20028;-52
2022/05/12 08:30:13;;;;;;;13.68;10.52;;;25.50;99.90;;;;;;5031228;28;20033;-52
2022/05/12 08:32:39;;;;;;;15.63;10.27;;;25.50;99.90;;;;;;5031213;28;20049;-52
2022/05/12 08:35:05;;;;;;;11.65;9.18;;;25.50;99.90;;;;;;5031312;28;20064;-52
2022/05/12 08:37:31;;;;;;;15.68;9.35;;;25.50;99.90;;;;;;5031067;28;20037;-52
2022/05/12 08:39:57;;;;;;;13.48;9.15;;;25.50;99.90;;;;;;5030939;28;20044;-52
2022/05/12 08:42:35;;;;;;;15.18;9.88;;;25.50;99.90;;;;;;5031067;28;20481;-53
2022/05/12 08:45:06;;;;;;;13.98;9.55;;;25.50;99.90;;;;;;5031164;28;20014;-52
2022/05/12 08:47:36;;;;;;;12.00;9.27;;;25.50;99.90;;;;;;5031035;28;20037;-52
2022/05/12 08:50:06;;;;;;;13.27;9.05;;;25.50;99.90;;;;;;5030978;28;20092;-52
2022/05/12 08:52:46;;;;;;;14.93;9.07;;;25.50;99.90;;;;;;5030908;28;20018;-52
2022/05/12 08:55:31;;;;;;;12.80;9.77;;;25.50;99.90;;;;;;5030929;28;20029;-53
2022/05/12 08:58:05;;;;;;;11.98;8.77;;;25.50;99.90;;;;;;5030844;28;20028;-51
2022/05/12 09:00:58;;;;;;;11.80;8.60;;;25.60;99.90;;;;;;5030696;28;20037;-52
2022/05/12 09:03:27;;;;;;;13.65;9.48;;;25.50;99.90;;;;;;5031015;28;20029;-52
2022/05/12 09:06:12;;;;;;;13.77;8.95;;;25.60;99.90;;;;;;5030932;28;20025;-52
2022/05/12 09:09:10;;;;;;;13.00;8.13;;;25.60;99.90;;;;;;5029475;28;20029;-52
2022/05/12 09:11:48;;;;;;;11.98;8.55;;;25.60;99.90;;;;;;5030616;28;20009;-52
2022/05/12 09:14:43;;;;;;;13.02;7.93;;;25.60;99.90;;;;;;5031615;28;20033;-52
2022/05/12 09:17:16;;;;;;;14.32;7.93;;;25.60;99.90;;;;;;5034483;28;20029;-51
2022/05/12 09:19:42;;;;;;;12.07;8.05;;;25.60;99.90;;;;;;5034272;28;20036;-52
2022/05/12 09:22:10;;;;;;;11.18;7.05;;;25.60;99.90;;;;;;5034341;28;20033;-51
2022/05/12 09:24:37;;;;;;;12.50;7.70;;;25.60;99.90;;;;;;5034431;28;20060;-52
2022/05/12 09:27:10;;;;;;;12.07;8.45;;;25.60;99.90;;;;;;5034443;28;20080;-52
2022/05/12 09:29:48;;;;;;;10.82;7.35;;;25.70;99.90;;;;;;5034328;28;20029;-52
2022/05/12 09:32:15;;;;;;;10.13;7.22;;;25.60;99.90;;;;;;5034277;28;20022;-52
2022/05/12 09:34:46;;;;;;;11.85;7.78;;;25.70;99.90;;;;;;5034281;28;20045;-52
2022/05/12 09:37:19;;;;;;;10.73;7.88;;;25.70;99.90;;;;;;5034072;28;20547;-52
2022/05/12 09:39:45;;;;;;;11.90;7.28;;;25.60;99.90;;;;;;5034073;28;20378;-52
2022/05/12 09:42:41;;;;;;;10.85;7.15;;;25.70;99.90;;;;;;5033939;28;20063;-52
2022/05/12 09:45:18;;;;;;;13.52;7.85;;;25.70;99.90;;;;;;5030365;28;20073;-52
2022/05/12 09:47:44;;;;;;;;;;;25.70;99.90;;;;;;5034300;28;20026;-52
2022/05/12 09:50:26;;;;;;;10.60;7.18;;;25.70;99.90;;;;;;5033988;28;19970;-52
2022/05/12 09:52:55;;;;;;;12.40;6.90;;;25.70;99.90;;;;;;5033954;28;20116;-52
2022/05/12 09:55:31;;;;;;;10.82;7.13;;;25.80;99.90;;;;;;5033855;28;20112;-52
2022/05/12 09:58:17;;;;;;;11.25;6.95;;;25.80;99.90;;;;;;5034095;28;20417;-52
2022/05/12 10:01:10;;;;;;;12.05;6.65;;;25.80;99.90;;;;;;5033729;28;20033;-52
2022/05/12 10:09:20;;;;;;;8.52;6.00;;;25.80;99.90;;;;;;5034018;28;20036;-58
2022/05/12 10:12:03;;;;;;;9.60;5.63;;;25.80;99.90;;;;;;5033590;28;20021;-52
2022/05/12 10:14:38;;;;;;;10.93;6.07;;;25.90;99.90;;;;;;5033669;28;20484;-52
2022/05/12 10:17:17;;;;;;;10.27;6.05;;;25.80;99.90;;;;;;5033473;28;20022;-52
2022/05/12 10:19:45;;;;;;;10.27;6.45;;;25.80;99.90;;;;;;5033389;28;20480;-52
2022/05/12 10:22:22;;;;;;;10.18;6.40;;;25.80;99.90;;;;;;5033322;28;20448;-52
2022/05/12 10:25:10;;;;;;;9.98;6.00;;;25.90;99.90;;;;;;5031894;28;20021;-52
2022/05/12 10:28:03;;;;;;;9.40;6.00;;;25.90;99.90;;;;;;5033202;28;20033;-52
2022/05/12 10:30:42;;;;;;;9.90;5.95;;;25.90;99.90;;;;;;5034860;28;20090;-51
2022/05/12 10:33:17;;;;;;;10.00;5.35;;;25.90;99.90;;;;;;5037315;28;20033;-52
2022/05/12 10:36:10;;;;;;;13.85;6.93;;;25.90;99.90;;;;;;5031056;28;20025;-52
2022/05/12 10:38:44;;;;;;;8.45;6.13;;;25.90;99.90;;;;;;5031104;28;20120;-52
2022/05/12 10:41:20;;;;;;;12.93;6.80;;;26.00;99.90;;;;;;5031037;28;20401;-52
2022/05/12 10:43:56;;;;;;;12.18;6.72;;;26.00;99.90;;;;;;5030958;28;20021;-52
2022/05/12 10:46:42;;;;;;;17.30;6.00;;;26.00;99.90;;;;;;5031121;28;20025;-52
2022/05/12 10:49:22;;;;;;;13.77;5.30;;;26.00;99.90;;;;;;5031126;28;20133;-52
2022/05/12 10:51:56;;;;;;;8.25;5.40;;;25.90;99.90;;;;;;5030798;28;20450;-51
2022/05/12 10:54:46;;;;;;;14.85;4.97;;;25.90;99.90;;;;;;5030942;28;20036;-52
2022/05/12 10:57:38;;;;;;;16.88;4.93;;;25.80;99.90;;;;;;5030869;28;20108;-53
2022/05/12 11:00:08;;;;;;;13.82;5.53;;;25.70;99.90;;;;;;5030900;28;20026;-50
2022/05/12 11:02:37;;;;;;;19.90;6.38;;;25.50;99.90;;;;;;5030501;28;20037;-52
2022/05/12 11:05:33;;;;;;;11.82;4.75;;;25.30;99.90;;;;;;5030822;28;20513;-52
2022/05/12 11:08:04;;;;;;;20.13;4.65;;;25.20;99.90;;;;;;5030621;28;20052;-52
2022/05/12 11:10:36;;;;;;;15.70;4.30;;;25.20;99.90;;;;;;5030790;28;20098;-51
2022/05/12 11:13:10;;;;;;;12.43;4.38;;;25.30;99.90;;;;;;5031995;28;20025;-51
2022/05/12 11:15:54;;;;;;;8.30;4.00;;;25.30;99.90;;;;;;5032519;28;20310;-51
2022/05/12 11:18:56;;;;;;;13.30;5.68;;;25.30;99.90;;;;;;5032256;28;20064;-51
2022/05/12 11:21:28;;;;;;;14.18;4.35;;;25.40;99.90;;;;;;5032009;28;20033;-51
2022/05/12 11:24:39;;;;;;;10.43;4.13;;;25.50;99.90;;;;;;5030985;28;20021;-51
2022/05/12 11:27:11;;;;;;;9.25;4.13;;;25.50;99.90;;;;;;5032155;28;20453;-51
2022/05/12 11:29:58;;;;;;;9.25;4.55;;;25.60;99.90;;;;;;5032434;28;20028;-51
2022/05/12 11:33:08;;;;;;;13.38;3.88;;;25.60;99.90;;;;;;5041874;28;20029;-51
2022/05/12 11:35:49;;;;;;;14.35;4.80;;;25.70;99.90;;;;;;5038504;28;20032;-51
2022/05/12 11:38:37;;;;;;;13.43;4.32;;;25.70;99.90;;;;;;5038915;28;20111;-51
2022/05/12 11:41:05;;;;;;;11.52;4.75;;;25.70;99.90;;;;;;5036298;28;20035;-51
2022/05/12 11:46:25;;;;;;;13.13;4.80;;;25.80;99.90;;;;;;5039616;28;20056;-50
2022/05/12 11:48:52;;;;;;;13.70;5.18;;;25.80;99.90;;;;;;5041304;28;20052;-50
2022/05/12 11:52:02;;;;;;;9.07;4.03;;;25.90;99.90;;;;;;5037069;28;20045;-52
2022/05/12 11:54:49;;;;;;;12.45;4.57;;;25.90;99.90;;;;;;5035447;28;20029;-52
2022/05/12 11:57:39;;;;;;;15.35;4.38;;;25.90;99.90;;;;;;5037871;28;20080;-52
2022/05/12 12:00:49;;;;;;;10.10;4.65;;;26.00;99.90;;;;;;5041623;28;20381;-50
2022/05/12 12:03:22;;;;;;;11.88;4.65;;;26.00;99.90;;;;;;5038054;28;20077;-50
2022/05/12 12:05:48;;;;;;;9.15;5.05;;;26.00;99.90;;;;;;5034492;28;20108;-50
2022/05/12 12:08:40;;;;;;;11.52;5.15;;;26.00;99.90;;;;;;5031863;28;20104;-50
2022/05/12 12:11:34;;;;;;;14.85;5.85;;;26.00;99.90;;;;;;5030985;28;20014;-50
2022/05/12 12:14:00;;;;;;;13.20;5.82;;;26.10;99.90;;;;;;5033074;28;20032;-50
2022/05/12 12:19:48;;;;;;;16.10;5.38;;;26.10;99.90;;;;;;5049296;28;20047;-50
2022/05/12 12:22:23;;;;;;;12.57;5.70;;;26.10;99.90;;;;;;5048731;28;20052;-50
2022/05/12 12:25:09;;;;;;;14.50;5.55;;;26.10;99.90;;;;;;5047953;28;20048;-51
2022/05/12 12:27:47;;;;;;;11.82;5.28;;;26.10;99.90;;;;;;5038551;28;20539;-50
2022/05/12 12:30:19;;;;;;;15.15;6.20;;;26.20;99.90;;;;;;5048795;28;20009;-50
2022/05/12 12:33:07;;;;;;;12.50;6.15;;;26.20;99.90;;;;;;5049217;28;20040;-50
2022/05/12 12:35:51;;;;;;;12.50;6.55;;;26.20;99.90;;;;;;5046026;28;20028;-52
2022/05/12 12:38:46;;;;;;;17.52;6.88;;;26.20;99.90;;;;;;5049841;28;20029;-51
2022/05/12 12:41:16;;;;;;;12.25;5.68;;;26.20;99.90;;;;;;5050675;28;20063;-51
2022/05/12 12:43:49;;;;;;;12.90;5.80;;;26.20;99.90;;;;;;5050418;28;20392;-51
2022/05/12 12:46:36;;;;;;;16.83;6.43;;;26.30;99.90;;;;;;5046817;28;20051;-50
2022/05/12 12:49:11;;;;;;;17.98;6.38;;;26.30;99.90;;;;;;5051835;28;20053;-52
2022/05/12 12:51:39;;;;;;;17.95;7.05;;;26.30;99.90;;;;;;5055048;28;20426;-52
2022/05/12 12:57:36;;;;;;;20.60;6.90;;;26.30;99.90;;;;;;5055027;28;20082;-51
2022/05/12 13:00:09;;;;;;;18.57;7.27;;;26.30;99.90;;;;;;5054757;28;20031;-51
2022/05/12 13:02:41;;;;;;;24.77;7.50;;;26.30;99.90;;;;;;5054782;28;20036;-52
2022/05/12 13:05:10;;;;;;;13.57;6.57;;;26.30;99.90;;;;;;5054917;28;20067;-52
2022/05/12 13:07:38;;;;;;;20.92;8.85;;;26.30;99.90;;;;;;5054810;28;20025;-51
2022/05/12 13:10:08;;;;;;;15.05;7.40;;;26.30;99.90;;;;;;5046987;28;20078;-52
2022/05/12 13:12:34;;;;;;;17.95;8.63;;;26.30;99.90;;;;;;5052727;28;20412;-51
2022/05/12 13:15:01;;;;;;;19.35;8.73;;;26.30;99.90;;;;;;5054104;28;20032;-51
2022/05/12 13:17:28;;;;;;;14.93;7.80;;;26.30;99.90;;;;;;5053158;28;20465;-51
2022/05/12 13:19:58;;;;;;;15.85;8.20;;;26.30;99.90;;;;;;5033034;28;20039;-52
2022/05/12 13:22:37;;;;;;;17.92;8.05;;;26.30;99.90;;;;;;5034418;28;20041;-51
2022/05/12 13:25:04;;;;;;;16.92;8.13;;;26.40;99.90;;;;;;5034181;28;20419;-51
2022/05/12 13:27:38;;;;;;;15.97;8.00;;;26.40;99.90;;;;;;5033739;28;20037;-51
2022/05/12 13:30:15;;;;;;;19.85;9.20;;;26.40;99.90;;;;;;5034324;28;20619;-51
2022/05/12 13:33:03;;;;;;;16.40;9.40;;;26.40;99.90;;;;;;5034383;28;20373;-52
2022/05/12 13:35:33;;;;;;;17.00;9.50;;;26.40;99.90;;;;;;5033929;28;20029;-52
2022/05/12 13:38:15;;;;;;;15.45;8.48;;;26.40;99.90;;;;;;5033957;28;20039;-51
2022/05/12 13:40:54;;;;;;;18.00;9.43;;;26.40;99.90;;;;;;5032955;28;20021;-52
2022/05/12 13:43:24;;;;;;;16.73;9.10;;;26.40;99.90;;;;;;5034082;28;20124;-51